Time;durP1;ratioP1;P1;durP2;ratioP2;P2;SDS_P1;SDS_P2;PMS_P1;PMS_P2;Temp;Humidity;BMP_temperature;BMP_pressure;BME280_temperature;BME280_humidity;BME280_pressure;Samples;Min_cycle;Max_cycle;Signal;HPM_P1;HPM_P2
2023/10/16 00:01:19;;;;;;;0.30;0.20;;;;;;;3.63;95.16;101030.06;4972480;28;20572;-47
2023/10/16 00:03:48;;;;;;;0.30;0.20;;;;;;;3.47;94.94;101036.00;4972821;28;20536;-47
2023/10/16 00:06:14;;;;;;;0.30;0.20;;;;;;;3.31;94.01;101039.31;4973775;28;20938;-47
2023/10/16 00:08:48;;;;;;;0.30;0.20;;;;;;;3.27;95.15;101036.63;4976108;28;20454;-47
2023/10/16 00:11:18;;;;;;;0.30;0.20;;;;;;;3.05;95.14;101041.59;4976320;28;20473;-47
2023/10/16 00:13:50;;;;;;;0.30;0.20;;;;;;;3.05;96.40;101038.97;4976357;28;20880;-47
2023/10/16 00:16:19;;;;;;;0.30;0.20;;;;;;;3.34;95.63;101029.72;4976223;28;20458;-47
2023/10/16 00:18:46;;;;;;;0.30;0.20;;;;;;;3.23;95.36;101029.56;4976246;28;20458;-47
2023/10/16 00:21:13;;;;;;;0.30;0.20;;;;;;;3.21;96.01;101036.56;4975774;28;21043;-47
2023/10/16 00:23:41;;;;;;;0.30;0.20;;;;;;;3.34;96.19;101034.09;4976256;28;20885;-48
2023/10/16 00:26:16;;;;;;;0.30;0.20;;;;;;;3.40;95.46;101034.16;4975929;28;21003;-47
2023/10/16 00:28:45;;;;;;;0.30;0.20;;;;;;;3.68;95.13;101030.97;4976058;28;20529;-47
2023/10/16 00:31:20;;;;;;;0.30;0.10;;;;;;;3.49;94.76;101037.78;4975828;28;20498;-48
2023/10/16 00:33:49;;;;;;;0.30;0.20;;;;;;;3.26;93.74;101033.97;4975737;28;20525;-47
2023/10/16 00:36:16;;;;;;;0.30;0.20;;;;;;;3.33;95.48;101035.84;4975924;28;20482;-49
2023/10/16 00:38:48;;;;;;;0.30;0.20;;;;;;;3.40;94.99;101034.16;4975847;28;20493;-47
2023/10/16 00:43:43;;;;;;;0.30;0.20;;;;;;;3.23;94.92;101034.81;4975610;28;20454;-47
2023/10/16 00:46:18;;;;;;;0.30;0.17;;;;;;;2.98;94.73;101037.97;4962501;28;20577;-48
2023/10/16 00:48:46;;;;;;;0.30;0.20;;;;;;;2.83;94.50;101036.00;4975907;28;20446;-47
2023/10/16 00:51:13;;;;;;;0.30;0.20;;;;;;;2.80;94.99;101025.47;4975621;28;20483;-47
2023/10/16 00:53:47;;;;;;;0.30;0.20;;;;;;;2.58;95.11;101033.88;4975636;28;20537;-47
2023/10/16 00:56:14;;;;;;;0.30;0.20;;;;;;;2.76;95.05;101031.53;4975686;28;20450;-47
2023/10/16 00:58:42;;;;;;;0.30;0.20;;;;;;;2.63;96.55;101033.09;4975184;28;20819;-48
2023/10/16 01:01:15;;;;;;;0.30;0.20;;;;;;;2.78;95.21;101027.19;4975192;28;20489;-47
2023/10/16 01:03:44;;;;;;;0.30;0.20;;;;;;;2.73;94.90;101023.59;4975395;28;20450;-47
2023/10/16 01:06:21;;;;;;;0.30;0.20;;;;;;;2.62;95.79;101018.22;4975311;28;20521;-47
2023/10/16 01:08:51;;;;;;;0.30;0.20;;;;;;;2.82;95.52;101017.63;4963167;28;20442;-47
2023/10/16 01:11:19;;;;;;;0.30;0.20;;;;;;;2.88;95.22;101013.34;4974961;28;21033;-47
2023/10/16 01:13:50;;;;;;;0.30;0.20;;;;;;;3.10;94.80;101014.50;4975240;28;20458;-48
2023/10/16 01:16:18;;;;;;;0.30;0.20;;;;;;;3.11;94.81;101007.50;4975321;28;20447;-47
2023/10/16 01:18:45;;;;;;;0.30;0.20;;;;;;;2.92;94.15;100998.50;4975056;28;20835;-47
2023/10/16 01:21:17;;;;;;;0.30;0.20;;;;;;;2.77;94.67;100993.94;4974828;28;20474;-47
2023/10/16 01:23:44;;;;;;;0.30;0.10;;;;;;;2.78;94.32;101005.31;4974850;28;20458;-48
2023/10/16 01:26:13;;;;;;;0.30;0.10;;;;;;;2.85;95.30;101005.41;4974985;28;20572;-48
2023/10/16 01:28:41;;;;;;;0.30;0.20;;;;;;;2.66;94.70;101006.00;4975000;28;20863;-47
2023/10/16 01:31:07;;;;;;;0.30;0.20;;;;;;;2.83;95.29;101004.50;4974814;28;20476;-47
2023/10/16 01:33:34;;;;;;;0.30;0.20;;;;;;;2.63;95.76;101000.72;4974972;28;20537;-47
2023/10/16 01:36:04;;;;;;;0.30;0.10;;;;;;;2.78;96.71;100997.44;4974869;28;20836;-47
2023/10/16 01:38:31;;;;;;;0.30;0.20;;;;;;;2.76;96.15;101005.28;4974869;28;20477;-47
2023/10/16 01:43:29;;;;;;;0.30;0.20;;;;;;;2.86;96.38;101012.41;4974849;28;20541;-48
2023/10/16 01:46:00;;;;;;;0.30;0.20;;;;;;;2.84;97.28;101003.63;4974313;28;20457;-47
2023/10/16 01:48:30;;;;;;;0.30;0.20;;;;;;;2.77;96.83;100993.06;4974472;28;20450;-47
2023/10/16 01:50:57;;;;;;;0.30;0.20;;;;;;;2.93;96.37;100995.03;4965807;28;20995;-48
2023/10/16 01:53:26;;;;;;;0.30;0.20;;;;;;;3.09;95.12;100999.63;4974318;28;20490;-48
2023/10/16 01:55:56;;;;;;;0.30;0.20;;;;;;;2.96;94.89;101002.94;4974525;28;20541;-47
2023/10/16 01:58:30;;;;;;;0.30;0.10;;;;;;;3.01;95.59;101006.50;4974415;28;20940;-47
2023/10/16 02:00:56;;;;;;;0.30;0.20;;;;;;;2.84;96.13;101000.13;4973922;28;21012;-48
2023/10/16 02:03:26;;;;;;;0.30;0.20;;;;;;;2.63;96.72;100998.97;4974200;28;20470;-47
2023/10/16 02:05:53;;;;;;;0.30;0.20;;;;;;;2.34;96.86;100989.78;4974375;28;20454;-47
2023/10/16 02:08:20;;;;;;;0.30;0.20;;;;;;;2.23;97.92;100984.34;4974052;28;20494;-47
2023/10/16 02:10:50;;;;;;;0.30;0.13;;;;;;;2.51;98.99;100990.91;4974102;28;20542;-47
2023/10/16 02:13:17;;;;;;;0.30;0.20;;;;;;;2.67;97.94;100986.78;4974079;28;20529;-47
2023/10/16 02:15:43;;;;;;;0.30;0.20;;;;;;;2.25;98.40;100992.25;4973891;28;20454;-47
2023/10/16 02:18:18;;;;;;;0.30;0.20;;;;;;;2.45;97.57;100979.44;4974143;28;20457;-47
2023/10/16 02:20:45;;;;;;;0.30;0.20;;;;;;;2.62;97.94;100967.47;4974112;28;20450;-47
2023/10/16 02:23:12;;;;;;;0.30;0.20;;;;;;;2.70;97.51;100976.31;4973882;28;20454;-47
2023/10/16 02:25:38;;;;;;;0.50;0.50;;;;;;;2.62;97.46;100977.97;4973895;28;20482;-47
2023/10/16 02:28:07;;;;;;;0.30;0.17;;;;;;;2.72;97.32;100974.59;4973543;28;20533;-48
2023/10/16 02:30:38;;;;;;;0.30;0.10;;;;;;;2.64;97.23;100976.25;4973574;28;20446;-48
2023/10/16 02:33:15;;;;;;;0.30;0.20;;;;;;;2.78;96.77;100968.56;4960999;28;20470;-47
2023/10/16 02:35:42;;;;;;;0.30;0.20;;;;;;;2.44;96.99;100969.78;4974005;28;20450;-47
2023/10/16 02:38:13;;;;;;;0.30;0.20;;;;;;;2.36;96.67;100974.94;4973747;28;20450;-47
2023/10/16 02:40:44;;;;;;;0.30;0.10;;;;;;;2.32;96.38;100979.22;4973497;28;20447;-48
2023/10/16 02:43:14;;;;;;;0.30;0.20;;;;;;;2.42;96.13;100974.16;4973727;28;20447;-47
2023/10/16 02:45:46;;;;;;;0.30;0.20;;;;;;;2.34;96.97;100972.31;4973663;28;20513;-47
2023/10/16 02:48:16;;;;;;;0.30;0.20;;;;;;;2.34;96.27;100974.03;4973688;28;20493;-47
2023/10/16 02:50:49;;;;;;;0.30;0.20;;;;;;;2.24;97.17;100970.38;4973374;28;20450;-48
2023/10/16 02:53:21;;;;;;;0.30;0.20;;;;;;;2.42;96.94;100971.53;4973642;28;20446;-47
2023/10/16 02:55:50;;;;;;;0.30;0.20;;;;;;;2.33;96.00;100974.88;4960818;28;20532;-47
2023/10/16 02:58:16;;;;;;;0.30;0.20;;;;;;;2.50;96.34;100981.28;4973489;28;20481;-47
2023/10/16 03:00:49;;;;;;;0.30;0.10;;;;;;;2.50;95.61;100983.03;4973179;28;20455;-48
2023/10/16 03:03:17;;;;;;;0.30;0.20;;;;;;;2.66;95.62;100983.28;4973290;28;21007;-47
2023/10/16 03:05:45;;;;;;;0.27;0.10;;;;;;;2.75;95.60;100976.41;4973367;28;21069;-47
2023/10/16 03:08:13;;;;;;;0.30;0.17;;;;;;;2.71;94.70;100977.19;4973453;28;20512;-47
2023/10/16 03:10:40;;;;;;;0.30;0.20;;;;;;;2.42;94.37;100979.38;4973650;28;20541;-47
2023/10/16 03:13:06;;;;;;;0.30;0.20;;;;;;;2.39;95.03;100982.84;4973460;28;20458;-47
2023/10/16 03:15:41;;;;;;;0.30;0.20;;;;;;;2.23;94.70;100976.47;4973394;28;20458;-47
2023/10/16 03:18:16;;;;;;;0.30;0.20;;;;;;;2.24;94.69;100972.13;4973206;28;20446;-48
2023/10/16 03:20:45;;;;;;;0.30;0.10;;;;;;;2.29;94.22;100980.94;4973467;28;20560;-47
2023/10/16 03:23:13;;;;;;;0.30;0.20;;;;;;;2.29;94.79;100980.94;4973356;28;20886;-47
2023/10/16 03:28:11;;;;;;;0.30;0.20;;;;;;;1.97;95.43;100960.31;4973487;28;20497;-47
2023/10/16 03:30:39;;;;;;;0.30;0.10;;;;;;;1.95;95.86;100955.91;4973061;28;20462;-49
2023/10/16 03:33:07;;;;;;;0.30;0.20;;;;;;;2.06;95.23;100970.09;4973559;28;20514;-47
2023/10/16 03:35:38;;;;;;;0.30;0.20;;;;;;;2.13;94.40;100974.56;4973369;28;20485;-47
2023/10/16 03:38:24;;;;;;;0.30;0.10;;;;;;;2.16;94.59;100976.34;4973371;28;20482;-47
2023/10/16 03:40:51;;;;;;;0.30;0.20;;;;;;;2.19;93.87;100971.16;4974146;28;20454;-50
2023/10/16 03:43:19;;;;;;;0.30;0.20;;;;;;;2.14;93.93;100972.81;4976834;28;20446;-50
2023/10/16 03:45:46;;;;;;;0.30;0.20;;;;;;;1.97;93.60;100972.53;4976877;28;20477;-50
2023/10/16 03:48:14;;;;;;;0.30;0.20;;;;;;;1.91;93.18;100977.66;4976841;28;20883;-50
2023/10/16 03:50:42;;;;;;;0.30;0.20;;;;;;;1.98;94.53;100980.44;4976384;28;20970;-50
2023/10/16 03:53:13;;;;;;;0.30;0.17;;;;;;;2.01;93.76;100983.09;4976588;28;20505;-49
2023/10/16 03:55:49;;;;;;;0.30;0.20;;;;;;;1.93;92.85;100978.59;4976387;28;20447;-49
2023/10/16 03:58:18;;;;;;;0.30;0.10;;;;;;;1.78;93.18;100974.84;4976593;28;20446;-49
2023/10/16 04:00:52;;;;;;;0.30;0.20;;;;;;;1.67;93.77;100975.50;4958848;28;20575;-49
2023/10/16 04:03:21;;;;;;;0.30;0.20;;;;;;;1.69;93.63;100974.69;4976585;28;20457;-49
2023/10/16 04:05:50;;;;;;;0.30;0.20;;;;;;;1.64;93.23;100972.81;4976431;28;20449;-49
2023/10/16 04:08:18;;;;;;;0.30;0.20;;;;;;;1.70;94.10;100962.47;4975992;28;20501;-50
2023/10/16 04:10:46;;;;;;;0.30;0.10;;;;;;;1.73;93.24;100960.75;4976240;28;21047;-49
2023/10/16 04:13:14;;;;;;;0.30;0.10;;;;;;;1.81;94.57;100953.06;4976273;28;20450;-49
2023/10/16 04:26:57;;;;;;;0.30;0.20;;;;;;;2.06;93.60;100959.59;4976085;28;20454;-50
2023/10/16 04:31:44;;;;;;;0.30;0.20;;;;;;;1.73;93.42;100959.88;4976324;28;20477;-51
2023/10/16 04:34:24;;;;;;;0.30;0.10;;;;;;;1.90;93.54;100958.44;4975987;28;20460;-50
2023/10/16 04:37:29;;;;;;;0.30;0.20;;;;;;;1.88;92.83;100964.50;4975992;28;20446;-50
2023/10/16 04:53:14;;;;;;;0.30;0.20;;;;;;;1.74;94.86;100952.03;4975380;28;20816;-50
2023/10/16 05:00:56;;;;;;;0.30;0.10;;;;;;;1.90;94.62;100953.19;4971375;28;20536;-50
2023/10/16 05:11:57;;;;;;;0.30;0.20;;;;;;;1.95;96.48;100948.03;4975226;28;20466;-50
2023/10/16 05:19:53;;;;;;;0.30;0.20;;;;;;;2.05;95.77;100936.84;4974875;28;20450;-50
2023/10/16 06:14:34;;;;;;;0.30;0.10;;;;;;;2.20;95.69;100938.84;4974094;28;20453;-50
2023/10/16 06:17:13;;;;;;;0.30;0.10;;;;;;;2.14;95.22;100946.59;4973985;28;20454;-51
2023/10/16 06:19:43;;;;;;;0.20;0.20;;;;;;;2.18;95.24;100944.03;4973702;28;20533;-50
2023/10/16 06:22:10;;;;;;;0.30;0.17;;;;;;;2.11;96.00;100941.31;4974052;28;20477;-51
2023/10/16 06:24:47;;;;;;;0.30;0.20;;;;;;;2.22;95.80;100940.63;4973932;28;20545;-50
2023/10/16 06:27:24;;;;;;;0.30;0.10;;;;;;;2.24;96.06;100940.66;4973754;28;20446;-50
2023/10/16 06:29:51;;;;;;;0.30;0.20;;;;;;;2.67;94.50;100950.91;4973657;28;20970;-51
2023/10/16 06:32:23;;;;;;;0.30;0.20;;;;;;;2.24;95.16;100956.38;4973942;28;20471;-50
2023/10/16 06:35:16;;;;;;;0.30;0.20;;;;;;;2.44;96.36;100961.94;4961131;28;20454;-51
2023/10/16 06:37:38;;;;;;;0.30;0.17;;;;;;;2.78;95.67;100953.69;4973453;28;20446;-50
2023/10/16 06:40:15;;;;;;;0.30;0.20;;;;;;;2.73;95.21;100960.59;4974246;28;20457;-51
2023/10/16 06:42:45;;;;;;;0.30;0.20;;;;;;;2.68;96.26;100968.41;4973721;28;20470;-51
2023/10/16 06:45:40;;;;;;;0.30;0.20;;;;;;;2.72;96.36;100974.59;4973925;28;20455;-50
2023/10/16 06:48:20;;;;;;;0.30;0.20;;;;;;;2.85;96.84;100968.66;4964168;28;20493;-50
2023/10/16 06:51:03;;;;;;;0.30;0.20;;;;;;;2.91;96.87;100957.38;4973260;28;20524;-51
2023/10/16 06:53:30;;;;;;;0.30;0.10;;;;;;;2.92;97.38;100972.25;4973681;28;20473;-50
2023/10/16 06:55:56;;;;;;;0.30;0.20;;;;;;;3.06;97.67;100970.69;4973463;28;20959;-50
2023/10/16 06:58:23;;;;;;;0.30;0.10;;;;;;;3.08;97.70;100968.97;4973254;28;20510;-50
2023/10/16 07:00:52;;;;;;;0.30;0.17;;;;;;;3.05;98.23;100973.31;4973237;28;20459;-51
2023/10/16 07:03:20;;;;;;;0.30;0.10;;;;;;;3.17;98.42;100971.72;4973347;28;20446;-51
2023/10/16 07:05:48;;;;;;;0.30;0.10;;;;;;;3.10;97.64;100967.22;4973387;28;20450;-51
2023/10/16 07:08:18;;;;;;;0.30;0.10;;;;;;;3.19;97.89;100976.97;4973421;28;20502;-50
2023/10/16 07:10:49;;;;;;;0.30;0.10;;;;;;;3.30;98.07;100978.00;4973482;28;20453;-51
2023/10/16 07:13:26;;;;;;;0.30;0.10;;;;;;;3.53;98.31;100973.00;4973551;28;20463;-51
2023/10/16 07:16:04;;;;;;;0.23;0.10;;;;;;;3.54;98.72;100961.59;4975513;28;20458;-50
2023/10/16 07:18:33;;;;;;;0.30;0.20;;;;;;;3.64;99.51;100965.22;4977456;28;20449;-50
2023/10/16 07:23:30;;;;;;;0.30;0.20;;;;;;;4.00;99.11;100980.50;4977406;28;20537;-51
2023/10/16 07:25:58;;;;;;;0.30;0.20;;;;;;;4.05;98.63;100978.78;4977236;28;20486;-50
2023/10/16 07:28:26;;;;;;;0.60;0.60;;;;;;;4.29;98.66;100981.63;4977192;28;20537;-51
2023/10/16 07:30:56;;;;;;;0.30;0.20;;;;;;;4.20;97.76;100976.28;4977195;28;20470;-50
2023/10/16 07:33:23;;;;;;;0.30;0.20;;;;;;;4.40;97.43;100977.34;4977315;28;20451;-51
2023/10/16 07:35:51;;;;;;;0.30;0.20;;;;;;;4.65;96.56;100985.38;4977200;28;20461;-51
2023/10/16 07:38:22;;;;;;;0.30;0.10;;;;;;;4.81;95.85;100989.00;4976986;28;20459;-51
2023/10/16 07:40:52;;;;;;;0.30;0.20;;;;;;;5.11;95.65;100981.28;4976664;28;20828;-51
2023/10/16 07:43:27;;;;;;;0.30;0.13;;;;;;;4.85;95.42;100981.13;4977194;28;20472;-51
2023/10/16 07:48:56;;;;;;;0.30;0.20;;;;;;;5.05;95.90;100981.22;4960177;28;20497;-51
2023/10/16 07:51:27;;;;;;;0.30;0.20;;;;;;;5.11;95.83;100977.75;4976994;28;20479;-51
2023/10/16 07:53:56;;;;;;;0.30;0.20;;;;;;;5.11;96.81;100983.03;4976674;28;20927;-51
2023/10/16 07:59:06;;;;;;;0.30;0.20;;;;;;;5.19;96.51;100983.94;4976500;28;20481;-49
2023/10/16 08:01:42;;;;;;;0.30;0.20;;;;;;;5.24;95.41;100974.31;4976449;28;20493;-51
2023/10/16 08:04:27;;;;;;;0.30;0.20;;;;;;;5.42;96.30;100968.22;4976738;28;20454;-51
2023/10/16 08:07:04;;;;;;;0.30;0.20;;;;;;;5.56;94.63;100974.41;4976428;28;20940;-51
2023/10/16 08:12:18;;;;;;;0.30;0.20;;;;;;;5.62;96.33;100975.31;4963980;28;20470;-50
2023/10/16 08:14:51;;;;;;;0.30;0.20;;;;;;;5.77;95.94;100971.84;4976406;28;20525;-51
2023/10/16 08:17:17;;;;;;;0.30;0.20;;;;;;;5.98;95.84;100971.00;4976204;28;20935;-51
2023/10/16 08:19:45;;;;;;;0.30;0.20;;;;;;;6.66;94.05;100969.22;4959106;28;20556;-51
2023/10/16 08:22:13;;;;;;;0.30;0.20;;;;;;;6.37;93.10;100969.25;4975930;28;20512;-50
2023/10/16 08:24:57;;;;;;;0.30;0.20;;;;;;;6.21;94.39;100965.75;4975976;28;20453;-51
2023/10/16 08:30:32;;;;;;;0.30;0.20;;;;;;;6.58;93.98;100969.25;4976071;28;20580;-51
2023/10/16 08:33:06;;;;;;;0.30;0.20;;;;;;;6.51;93.87;100968.38;4975612;28;20944;-50
2023/10/16 08:35:39;;;;;;;0.30;0.20;;;;;;;6.61;93.36;100963.97;4976117;28;20446;-51
2023/10/16 08:38:25;;;;;;;0.30;0.20;;;;;;;6.61;94.86;100958.69;4976018;28;20442;-51
2023/10/16 08:41:06;;;;;;;0.30;0.20;;;;;;;6.67;95.15;100963.94;4975706;28;20474;-51
2023/10/16 08:46:18;;;;;;;0.30;0.20;;;;;;;7.18;93.89;100969.97;4975934;28;20447;-51
2023/10/16 08:48:48;;;;;;;0.30;0.20;;;;;;;7.16;94.75;100961.16;4975677;28;20548;-51
2023/10/16 08:51:18;;;;;;;0.30;0.20;;;;;;;7.44;94.04;100967.22;4975654;28;20474;-51
2023/10/16 08:53:45;;;;;;;0.30;0.20;;;;;;;7.55;93.54;100965.41;4975350;28;20459;-51
2023/10/16 08:56:17;;;;;;;0.30;0.20;;;;;;;8.11;92.30;100956.19;4975751;28;20549;-51
2023/10/16 08:58:45;;;;;;;0.30;0.20;;;;;;;7.97;92.43;100958.97;4975428;28;20533;-51
2023/10/16 09:01:16;;;;;;;0.30;0.20;;;;;;;8.07;91.90;100957.09;4975170;28;20486;-51
2023/10/16 09:03:59;;;;;;;0.30;0.20;;;;;;;8.00;91.90;100955.41;4975464;28;20810;-51
2023/10/16 09:06:29;;;;;;;0.30;0.20;;;;;;;8.06;92.88;100959.75;4975272;28;20454;-51
2023/10/16 09:08:56;;;;;;;0.30;0.20;;;;;;;8.14;93.14;100956.16;4975458;28;20497;-51
2023/10/16 09:11:24;;;;;;;0.30;0.20;;;;;;;7.99;93.04;100956.28;4975302;28;20557;-51
2023/10/16 09:13:52;;;;;;;0.30;0.20;;;;;;;8.18;93.29;100962.31;4975447;28;20482;-51
2023/10/16 09:16:23;;;;;;;0.30;0.20;;;;;;;8.33;93.06;100949.81;4975181;28;20525;-51
2023/10/16 09:18:52;;;;;;;0.30;0.20;;;;;;;8.51;92.22;100959.44;4975430;28;20493;-51
2023/10/16 09:21:23;;;;;;;0.30;0.20;;;;;;;8.54;91.15;100959.38;4975094;28;20474;-51
2023/10/16 09:23:51;;;;;;;0.30;0.20;;;;;;;8.49;91.85;100952.34;4975183;28;20482;-51
2023/10/16 09:26:23;;;;;;;0.30;0.20;;;;;;;8.59;91.63;100952.25;4974984;28;20501;-51
2023/10/16 09:28:53;;;;;;;0.30;0.20;;;;;;;8.65;92.05;100955.75;4975118;28;20561;-51
2023/10/16 09:31:21;;;;;;;0.30;0.20;;;;;;;8.80;91.13;100945.00;4975066;28;20470;-51
2023/10/16 09:33:48;;;;;;;0.40;0.30;;;;;;;9.06;90.77;100945.59;4975074;28;20987;-51
2023/10/16 09:36:21;;;;;;;0.30;0.20;;;;;;;9.28;90.14;100954.13;4975100;28;20450;-51
2023/10/16 09:38:51;;;;;;;0.30;0.20;;;;;;;9.28;89.67;100940.00;4974890;28;20509;-51
2023/10/16 09:43:56;;;;;;;0.30;0.20;;;;;;;9.28;89.53;100946.19;4993940;28;20934;-52
2023/10/16 09:49:09;;;;;;;0.30;0.20;;;;;;;9.67;88.98;100942.13;4994000;28;20493;-50
2023/10/16 09:51:36;;;;;;;0.30;0.20;;;;;;;9.62;88.83;100940.44;4993920;28;20845;-50
2023/10/16 09:54:09;;;;;;;0.30;0.20;;;;;;;9.41;90.42;100931.84;4993910;28;20507;-50
2023/10/16 09:56:39;;;;;;;0.30;0.20;;;;;;;10.04;88.20;100928.28;4994102;28;20536;-50
2023/10/16 09:59:17;;;;;;;0.30;0.20;;;;;;;9.98;86.98;100920.41;4994028;28;20442;-50
2023/10/16 10:01:44;;;;;;;0.30;0.20;;;;;;;9.96;87.28;100925.75;4993769;28;20465;-50
2023/10/16 10:04:12;;;;;;;0.30;0.20;;;;;;;9.87;86.53;100925.00;4993782;28;20449;-49
2023/10/16 10:06:41;;;;;;;0.30;0.20;;;;;;;9.92;86.22;100926.69;4993317;28;20454;-49
2023/10/16 10:11:57;;;;;;;0.30;0.20;;;;;;;10.38;84.11;100910.03;4993429;28;20552;-49
2023/10/16 10:14:39;;;;;;;0.30;0.20;;;;;;;9.98;84.38;100928.38;4993543;28;20445;-50
2023/10/16 10:17:09;;;;;;;0.30;0.20;;;;;;;9.99;84.16;100930.13;4982346;28;20566;-50
2023/10/16 10:19:42;;;;;;;0.30;0.20;;;;;;;9.78;84.91;100924.25;4993097;28;20448;-49
2023/10/16 10:22:17;;;;;;;0.30;0.20;;;;;;;10.09;83.89;100918.47;4983955;28;20472;-49
2023/10/16 10:24:51;;;;;;;0.30;0.20;;;;;;;10.58;83.16;100913.22;4993261;28;20460;-50
2023/10/16 10:27:17;;;;;;;0.30;0.20;;;;;;;10.84;82.93;100912.72;4993091;28;20523;-50
2023/10/16 10:29:48;;;;;;;0.30;0.20;;;;;;;10.88;81.46;100910.84;4993294;28;20489;-50
2023/10/16 10:32:15;;;;;;;0.30;0.20;;;;;;;10.83;80.92;100900.31;4993033;28;21006;-50
2023/10/16 10:34:44;;;;;;;0.30;0.20;;;;;;;10.83;80.57;100902.09;4992856;28;20455;-50
2023/10/16 10:37:51;;;;;;;0.30;0.20;;;;;;;10.88;78.72;100897.56;4993000;28;20541;-49
2023/10/16 10:40:26;;;;;;;0.30;0.20;;;;;;;11.05;79.12;100887.44;4990495;28;20966;-50
2023/10/16 10:42:55;;;;;;;0.30;0.20;;;;;;;11.19;79.53;100879.16;4992792;28;20560;-50
2023/10/16 10:45:35;;;;;;;0.30;0.20;;;;;;;10.42;76.69;100887.81;4992812;28;20531;-49
2023/10/16 10:48:12;;;;;;;0.30;0.20;;;;;;;10.66;77.96;100881.13;4992952;28;20464;-50
2023/10/16 10:50:40;;;;;;;0.30;0.20;;;;;;;10.74;76.00;100871.25;4992434;28;20496;-50
2023/10/16 10:53:14;;;;;;;0.30;0.20;;;;;;;11.22;74.86;100863.13;4992905;28;20505;-50
2023/10/16 10:55:55;;;;;;;0.30;0.20;;;;;;;10.94;74.94;100869.03;4992900;28;20449;-50
2023/10/16 10:58:24;;;;;;;0.30;0.20;;;;;;;10.86;74.84;100860.38;4991647;28;20541;-50
2023/10/16 11:01:00;;;;;;;0.30;0.20;;;;;;;10.90;75.56;100856.72;4993144;28;20456;-50
2023/10/16 11:03:35;;;;;;;0.30;0.20;;;;;;;11.05;75.30;100854.66;4992832;28;20520;-50
2023/10/16 11:06:02;;;;;;;0.30;0.20;;;;;;;11.33;74.91;100846.94;4992799;28;20449;-49
2023/10/16 11:08:34;;;;;;;0.30;0.20;;;;;;;11.42;73.45;100841.41;4992449;28;20453;-49
2023/10/16 11:11:03;;;;;;;0.30;0.20;;;;;;;11.31;71.80;100841.66;4992712;28;20540;-50
2023/10/16 11:13:30;;;;;;;0.30;0.20;;;;;;;11.79;70.71;100834.34;4992757;28;20858;-50
2023/10/16 11:15:58;;;;;;;0.30;0.20;;;;;;;11.10;72.53;100836.78;4992811;28;20504;-50
2023/10/16 11:18:29;;;;;;;0.30;0.20;;;;;;;11.12;73.21;100833.22;4992520;28;20931;-50
2023/10/16 11:21:03;;;;;;;0.30;0.20;;;;;;;11.50;73.61;100826.97;4992268;28;20828;-49
2023/10/16 11:23:38;;;;;;;0.97;0.97;;;;;;;11.61;72.99;100829.41;4992536;28;20998;-50
2023/10/16 11:26:06;;;;;;;0.30;0.20;;;;;;;12.01;72.94;100820.44;4992550;28;20461;-52
2023/10/16 11:28:35;;;;;;;0.30;0.20;;;;;;;11.88;72.22;100821.69;4992803;28;20450;-52
2023/10/16 11:31:04;;;;;;;0.30;0.20;;;;;;;11.71;70.74;100814.09;4992770;28;20450;-52
2023/10/16 11:33:34;;;;;;;0.30;0.20;;;;;;;11.76;71.60;100810.38;4992599;28;20937;-50
2023/10/16 11:36:03;;;;;;;0.30;0.20;;;;;;;11.78;70.80;100805.00;4992255;28;20488;-50
2023/10/16 11:38:34;;;;;;;0.30;0.20;;;;;;;11.71;71.59;100808.75;4992487;28;20468;-49
2023/10/16 11:41:12;;;;;;;0.30;0.20;;;;;;;11.70;70.19;100794.56;4991945;28;20455;-51
2023/10/16 11:43:47;;;;;;;0.30;0.20;;;;;;;11.57;68.40;100803.78;4992242;28;20445;-50
2023/10/16 11:46:34;;;;;;;0.30;0.20;;;;;;;11.82;67.50;100793.41;4992412;28;20484;-50
2023/10/16 11:51:51;;;;;;;0.30;0.20;;;;;;;11.66;69.09;100790.25;4992274;28;20476;-50
2023/10/16 11:54:20;;;;;;;0.30;0.20;;;;;;;11.92;69.23;100781.59;4992554;28;20901;-50
2023/10/16 11:56:47;;;;;;;0.30;0.20;;;;;;;12.07;68.95;100773.22;4992186;28;20449;-50
2023/10/16 11:59:15;;;;;;;0.30;0.20;;;;;;;11.90;69.93;100778.09;4991337;28;20451;-50
2023/10/16 12:01:44;;;;;;;0.30;0.20;;;;;;;12.19;67.82;100779.97;4992472;28;20903;-50
2023/10/16 12:04:28;;;;;;;0.30;0.20;;;;;;;12.07;68.00;100775.00;4995965;28;20879;-50
2023/10/16 12:06:57;;;;;;;0.30;0.20;;;;;;;11.91;67.30;100770.97;4995762;28;20512;-50
2023/10/16 12:09:25;;;;;;;0.30;0.20;;;;;;;11.78;67.45;100765.94;4995657;28;20517;-50
2023/10/16 12:11:54;;;;;;;0.30;0.20;;;;;;;12.09;67.09;100757.19;4995742;28;20469;-50
2023/10/16 12:14:22;;;;;;;0.30;0.20;;;;;;;12.10;66.20;100751.81;4995724;28;20456;-50
2023/10/16 12:16:48;;;;;;;0.30;0.20;;;;;;;12.03;65.04;100752.00;4995681;28;20449;-50
2023/10/16 12:19:16;;;;;;;0.30;0.20;;;;;;;12.06;63.90;100749.25;4995765;28;20820;-50
2023/10/16 12:21:52;;;;;;;0.30;0.20;;;;;;;12.18;62.70;100743.59;4995447;28;20515;-50
2023/10/16 12:24:20;;;;;;;0.30;0.20;;;;;;;12.06;59.53;100749.25;4995660;28;20446;-50
2023/10/16 12:26:47;;;;;;;0.30;0.20;;;;;;;12.00;60.93;100742.31;4995334;28;20957;-50
2023/10/16 12:29:13;;;;;;;0.30;0.20;;;;;;;11.94;62.16;100744.28;4995530;28;20488;-50
2023/10/16 12:31:40;;;;;;;0.30;0.20;;;;;;;12.10;60.97;100735.81;4995488;28;20851;-50
2023/10/16 12:34:16;;;;;;;0.30;0.20;;;;;;;12.32;61.14;100740.53;4995411;28;20467;-50
2023/10/16 12:36:43;;;;;;;0.30;0.20;;;;;;;12.24;59.76;100740.75;4995275;28;20523;-50
2023/10/16 12:39:25;;;;;;;0.30;0.20;;;;;;;12.23;60.87;100731.03;4995375;28;20450;-50
2023/10/16 12:41:55;;;;;;;0.30;0.20;;;;;;;12.52;59.50;100724.84;4995369;28;20922;-50
2023/10/16 12:44:25;;;;;;;0.30;0.20;;;;;;;12.57;58.48;100725.56;4994527;28;20481;-50
2023/10/16 12:46:56;;;;;;;0.30;0.20;;;;;;;12.63;57.68;100717.41;4986128;28;20454;-51
2023/10/16 12:49:23;;;;;;;0.30;0.20;;;;;;;12.27;57.42;100722.00;4994708;28;20575;-50
2023/10/16 12:51:49;;;;;;;0.30;0.20;;;;;;;12.18;56.62;100721.38;4990467;28;20478;-50
2023/10/16 12:54:16;;;;;;;0.30;0.20;;;;;;;12.19;55.37;100715.13;4994915;28;20953;-50
2023/10/16 12:56:43;;;;;;;0.30;0.20;;;;;;;12.32;55.03;100712.06;4994906;28;20453;-50
2023/10/16 12:59:10;;;;;;;0.30;0.20;;;;;;;12.62;55.31;100717.44;4995103;28;20858;-50
2023/10/16 13:01:40;;;;;;;0.30;0.20;;;;;;;12.69;55.43;100711.88;4994371;28;20557;-50
2023/10/16 13:04:13;;;;;;;0.30;0.20;;;;;;;12.78;54.91;100701.84;4994913;28;20456;-50
2023/10/16 13:06:40;;;;;;;0.30;0.20;;;;;;;12.77;54.73;100697.44;4994938;28;20474;-50
2023/10/16 13:09:14;;;;;;;0.40;0.20;;;;;;;12.67;54.08;100705.72;4994753;28;20544;-52
2023/10/16 13:11:41;;;;;;;0.30;0.20;;;;;;;12.46;57.62;100698.34;4994629;28;20497;-50
2023/10/16 13:14:08;;;;;;;0.30;0.20;;;;;;;12.64;58.45;100684.47;4994392;28;20453;-50
2023/10/16 13:16:34;;;;;;;0.30;0.20;;;;;;;12.67;58.28;100696.84;4994925;28;21002;-53
2023/10/16 13:19:02;;;;;;;0.40;0.20;;;;;;;12.73;55.71;100684.16;4994512;28;20989;-50
2023/10/16 13:21:38;;;;;;;0.30;0.20;;;;;;;12.51;55.12;100690.22;4966025;28;20473;-50
2023/10/16 13:24:10;;;;;;;2.73;0.80;;;;;;;12.49;55.18;100686.75;4994550;28;20934;-51
2023/10/16 13:26:38;;;;;;;0.30;0.20;;;;;;;12.65;55.77;100682.69;4994119;28;20450;-50
2023/10/16 13:29:09;;;;;;;0.40;0.20;;;;;;;12.54;56.88;100683.00;4994276;28;21017;-50
2023/10/16 13:31:36;;;;;;;0.30;0.20;;;;;;;12.78;54.10;100677.84;4994301;28;20556;-50
2023/10/16 13:34:04;;;;;;;0.30;0.20;;;;;;;12.89;54.88;100681.91;4994354;28;20454;-53
2023/10/16 13:36:35;;;;;;;0.30;0.20;;;;;;;12.74;56.14;100690.38;4994247;28;20503;-53
2023/10/16 13:39:08;;;;;;;0.30;0.20;;;;;;;12.58;58.31;100686.44;4993924;28;20477;-50
2023/10/16 13:41:50;;;;;;;0.40;0.30;;;;;;;12.61;58.32;100684.56;4994072;28;20481;-51
2023/10/16 13:44:19;;;;;;;0.30;0.20;;;;;;;12.73;58.24;100684.16;4993923;28;20457;-50
2023/10/16 13:46:49;;;;;;;0.30;0.20;;;;;;;12.63;58.17;100680.06;4994118;28;20492;-50
2023/10/16 13:49:17;;;;;;;0.30;0.20;;;;;;;12.77;58.48;100678.75;4993703;28;20453;-50
2023/10/16 13:51:45;;;;;;;0.30;0.20;;;;;;;12.64;57.71;100680.94;4993621;28;20528;-50
2023/10/16 13:54:12;;;;;;;0.30;0.20;;;;;;;12.88;58.45;100672.13;4993955;28;20464;-50
2023/10/16 13:56:39;;;;;;;0.30;0.20;;;;;;;13.01;58.69;100680.63;4993850;28;20946;-51
2023/10/16 13:59:06;;;;;;;0.30;0.20;;;;;;;13.12;58.18;100678.50;4982836;28;20536;-51
2023/10/16 14:01:39;;;;;;;0.30;0.20;;;;;;;12.87;58.65;100680.19;4993593;28;20912;-50